Darden, Tennessee
Current Conditions -  °F | °C
As of 9:55 PM on Saturday 25 Oct 2014 (Local Time) from KPVE Reporting Station
Broken Clouds Broken Clouds  
Wind Chill: 63°   Ceiling: 100
Heat Index: 63°   Visibility: 0.25mi
Dew Point: 61°   Wind: 0mph
Humidity: 94%   Direction: NA
Pressure: 30.03"   Gusts: NA
Location:  35.64°N, 88.22°W
Report Text: KPVE 260255Z AUTO 00000KT 1/4SM BKN001 17/16 A3003 RMK
Loading
Personal Weather Stations






























Interactive Weather Map
Tropical Storm Tracking
New forecast layout! Learn more

10-Day Weather Forecast

Advertisements
Track Severe Weather on mobile